メインページ
METAR-TAF:

METAR-TAF

空港 :

シラキューズ・ハンコック国際空港

シラキュース, ニューヨーク, アメリカ合衆国

緯度: 43-06-33N, 経度: 076-06-12W, 海抜: 128m

現時点の気象観測

当レポートは43分前の01:54(UTC)に作成
の風 5kt
気温 -3°C
湿度 80%
気圧 1022 hPa
視程: 16.1km
高度1900ftの雲はほとんどない
高度2500ftの雲は散在している
高度3200ftの曇り

METAR: KSYR 070154Z 36005KT 10SM FEW019 SCT025 OVC032 M03/M06 A3017 RMK AO2 SLP220 T10281056

時間: 21:37 (02:37 UTC)

予報

当レポートは25分前の02:12(UTC)に作成
予報は07日の 02時(UTC)から 07日の 24時(UTC)まで有効
北/北西の風 8kt
視程: 10km
高度2500ftの雲は散在している
高度3500ftの曇り
07日の 02時(UTC)から 07日の 05時(UTC)まで一時的に
高度2500ftの曇り
弱いにわか雪
07日の 0500時(UTC)から
西/北西の風 5kt
視程: 10km
高度2500ftの曇り
弱いにわか雪
07日の 06時(UTC)から 07日の 09時(UTC)まで一時的に
視程: 4.8km
高度1500ftの曇り
弱いにわか雪, 靄
07日の 0900時(UTC)から
西の風 5kt
視程: 6.4km
高度1500ftの曇り
弱いにわか雪, 靄
07日の 09時(UTC)から 07日の 12時(UTC)まで一時的に
視程: 3.2km
高度800ftの千切れ雲あり
高度1200ftの曇り
弱いにわか雪, 靄
07日の 1200時(UTC)から
西の風 8kt
視程: 10km
高度2500ftの曇り
07日の 1800時(UTC)から
西/北西の風 8kt
視程: 10km
高度3500ftの千切れ雲あり

TAF: KSYR 070212Z 0702/0724 34008KT P6SM SCT025 OVC035 TEMPO 0702/0705 -SHSN OVC025 FM070500 30005KT P6SM -SHSN OVC025 TEMPO 0706/0709 3SM -SHSN BR OVC015 FM070900 28005KT 4SM -SHSN BR OVC015 TEMPO 0709/0712 2SM -SHSN BR BKN008 OVC012 FM071200 28008KT P6SM OVC025 FM071800 29008KT P6SM BKN035

4,000以上の空港の気象観測と天気予報(METAR報とTAF報)

利用可能な観測所は地図上に黄色い丸と赤い丸で示す。

丸の上にカーソルを重ねると観測所名を参照できる。

次にクリックすると気象観測と天気予報を参照できる。

マップの切り替え:黒色「×」印の緑ボタンをクリックして拡大、「-」印の緑ボタンをクリックして縮小、緑色の三角印をクリックして隣りの地図に切り替え


METAR-TAF: